METAR Data

Data at: 1250 UTC 24 May 2022

METAR for:KLEW (Auburn-Lewiston Muni, ME, US)
Text:KLEW 241232Z AUTO 02007KT 10SM FEW002 11/02 A3039 RMK AO2
Temperature: 11.0°C ( 52°F)
Dewpoint: 2.0°C ( 36°F) [RH = 54%]
Pressure (altimeter):30.39 inches Hg (1029.2 mb)
Winds:from the NNE (20 degrees) at 8 MPH (7 knots; 3.6 m/s)
Visibility:10 or more sm (16+ km)
Ceiling:at least 12,000 feet AGL
Clouds: few clouds at 200 feet AGL
QC Flag:automated observation with no human augmentation